sensor_id;sensor_type;location;lat;lon;timestamp;P1;durP1;ratioP1;P2;durP2;ratioP2
55647;SDS011;45266;48.756;9.246;2023-02-01T00:00:55;5.27;;;3.40;;
55647;SDS011;45266;48.756;9.246;2023-02-01T00:01:56;4.40;;;3.60;;
55647;SDS011;45266;48.756;9.246;2023-02-01T00:02:58;5.00;;;3.73;;
55647;SDS011;45266;48.756;9.246;2023-02-01T00:04:00;4.83;;;3.40;;
55647;SDS011;45266;48.756;9.246;2023-02-01T00:05:02;4.00;;;3.10;;
55647;SDS011;45266;48.756;9.246;2023-02-01T00:06:04;3.73;;;3.27;;
55647;SDS011;45266;48.756;9.246;2023-02-01T00:07:06;4.30;;;3.60;;
55647;SDS011;45266;48.756;9.246;2023-02-01T00:08:08;4.40;;;3.03;;
55647;SDS011;45266;48.756;9.246;2023-02-01T00:09:10;4.67;;;3.63;;
55647;SDS011;45266;48.756;9.246;2023-02-01T00:10:11;4.53;;;3.67;;
55647;SDS011;45266;48.756;9.246;2023-02-01T00:11:14;4.77;;;3.57;;
55647;SDS011;45266;48.756;9.246;2023-02-01T00:12:16;4.67;;;3.20;;
55647;SDS011;45266;48.756;9.246;2023-02-01T00:13:17;3.77;;;3.10;;
55647;SDS011;45266;48.756;9.246;2023-02-01T00:14:19;6.43;;;3.30;;
55647;SDS011;45266;48.756;9.246;2023-02-01T00:15:21;4.47;;;3.50;;
55647;SDS011;45266;48.756;9.246;2023-02-01T00:16:25;4.13;;;3.30;;
55647;SDS011;45266;48.756;9.246;2023-02-01T00:17:28;4.07;;;3.30;;
55647;SDS011;45266;48.756;9.246;2023-02-01T00:18:30;4.43;;;3.70;;
55647;SDS011;45266;48.756;9.246;2023-02-01T00:19:32;4.23;;;3.43;;
55647;SDS011;45266;48.756;9.246;2023-02-01T00:20:34;3.93;;;2.87;;
55647;SDS011;45266;48.756;9.246;2023-02-01T00:21:36;4.30;;;3.20;;
55647;SDS011;45266;48.756;9.246;2023-02-01T00:22:38;3.80;;;3.27;;
55647;SDS011;45266;48.756;9.246;2023-02-01T00:23:40;5.00;;;3.03;;
55647;SDS011;45266;48.756;9.246;2023-02-01T00:24:42;4.10;;;3.33;;
55647;SDS011;45266;48.756;9.246;2023-02-01T00:25:43;4.07;;;3.03;;
55647;SDS011;45266;48.756;9.246;2023-02-01T00:26:45;4.10;;;3.40;;
55647;SDS011;45266;48.756;9.246;2023-02-01T00:27:50;4.27;;;3.20;;
55647;SDS011;45266;48.756;9.246;2023-02-01T00:28:52;4.50;;;3.40;;
55647;SDS011;45266;48.756;9.246;2023-02-01T00:29:55;4.23;;;2.90;;
55647;SDS011;45266;48.756;9.246;2023-02-01T00:30:57;4.17;;;2.70;;
55647;SDS011;45266;48.756;9.246;2023-02-01T00:32:03;3.67;;;3.17;;
55647;SDS011;45266;48.756;9.246;2023-02-01T00:33:05;4.53;;;3.33;;
55647;SDS011;45266;48.756;9.246;2023-02-01T00:34:07;4.00;;;3.33;;
55647;SDS011;45266;48.756;9.246;2023-02-01T00:35:11;4.57;;;3.40;;
55647;SDS011;45266;48.756;9.246;2023-02-01T00:36:12;3.23;;;2.80;;
55647;SDS011;45266;48.756;9.246;2023-02-01T00:37:15;3.37;;;2.67;;
55647;SDS011;45266;48.756;9.246;2023-02-01T00:38:16;4.53;;;3.43;;
55647;SDS011;45266;48.756;9.246;2023-02-01T00:39:18;3.50;;;3.00;;
55647;SDS011;45266;48.756;9.246;2023-02-01T00:40:20;3.73;;;3.00;;
55647;SDS011;45266;48.756;9.246;2023-02-01T00:41:22;4.93;;;3.10;;
55647;SDS011;45266;48.756;9.246;2023-02-01T00:42:24;4.90;;;2.93;;
55647;SDS011;45266;48.756;9.246;2023-02-01T00:43:26;3.43;;;2.77;;
55647;SDS011;45266;48.756;9.246;2023-02-01T00:44:28;4.00;;;2.90;;
55647;SDS011;45266;48.756;9.246;2023-02-01T00:45:34;3.27;;;2.60;;
55647;SDS011;45266;48.756;9.246;2023-02-01T00:46:36;3.37;;;2.93;;
55647;SDS011;45266;48.756;9.246;2023-02-01T00:47:38;5.53;;;3.10;;
55647;SDS011;45266;48.756;9.246;2023-02-01T00:48:40;4.40;;;2.73;;
55647;SDS011;45266;48.756;9.246;2023-02-01T00:49:42;3.00;;;2.50;;
55647;SDS011;45266;48.756;9.246;2023-02-01T00:50:44;3.03;;;2.60;;
55647;SDS011;45266;48.756;9.246;2023-02-01T00:51:46;4.20;;;2.43;;
55647;SDS011;45266;48.756;9.246;2023-02-01T00:52:48;3.30;;;2.57;;
55647;SDS011;45266;48.756;9.246;2023-02-01T00:53:50;3.03;;;2.57;;
55647;SDS011;45266;48.756;9.246;2023-02-01T00:54:51;3.27;;;2.50;;
55647;SDS011;45266;48.756;9.246;2023-02-01T00:55:53;3.17;;;2.67;;
55647;SDS011;45266;48.756;9.246;2023-02-01T00:56:55;5.23;;;2.87;;
55647;SDS011;45266;48.756;9.246;2023-02-01T00:57:57;2.63;;;2.13;;
55647;SDS011;45266;48.756;9.246;2023-02-01T00:58:58;3.13;;;2.30;;
55647;SDS011;45266;48.756;9.246;2023-02-01T01:00:00;2.40;;;2.20;;
55647;SDS011;45266;48.756;9.246;2023-02-01T01:01:04;4.20;;;2.30;;
55647;SDS011;45266;48.756;9.246;2023-02-01T01:02:07;2.60;;;2.40;;
55647;SDS011;45266;48.756;9.246;2023-02-01T01:03:09;3.10;;;2.43;;
55647;SDS011;45266;48.756;9.246;2023-02-01T01:04:20;3.17;;;2.43;;
55647;SDS011;45266;48.756;9.246;2023-02-01T01:05:22;2.80;;;2.20;;
55647;SDS011;45266;48.756;9.246;2023-02-01T01:06:27;3.20;;;2.60;;
55647;SDS011;45266;48.756;9.246;2023-02-01T01:07:31;3.90;;;2.30;;
55647;SDS011;45266;48.756;9.246;2023-02-01T01:08:34;2.50;;;2.23;;
55647;SDS011;45266;48.756;9.246;2023-02-01T01:09:36;4.70;;;2.67;;
55647;SDS011;45266;48.756;9.246;2023-02-01T01:10:38;2.83;;;2.43;;
55647;SDS011;45266;48.756;9.246;2023-02-01T01:11:40;3.00;;;2.30;;
55647;SDS011;45266;48.756;9.246;2023-02-01T01:12:42;2.37;;;2.17;;
55647;SDS011;45266;48.756;9.246;2023-02-01T01:13:45;3.63;;;2.53;;
55647;SDS011;45266;48.756;9.246;2023-02-01T01:14:47;2.60;;;2.03;;
55647;SDS011;45266;48.756;9.246;2023-02-01T01:15:49;5.83;;;2.37;;
55647;SDS011;45266;48.756;9.246;2023-02-01T01:16:51;2.53;;;2.00;;
55647;SDS011;45266;48.756;9.246;2023-02-01T01:17:53;2.57;;;2.30;;
55647;SDS011;45266;48.756;9.246;2023-02-01T01:18:55;2.80;;;2.13;;
55647;SDS011;45266;48.756;9.246;2023-02-01T01:19:57;2.77;;;2.30;;
55647;SDS011;45266;48.756;9.246;2023-02-01T01:21:00;3.47;;;2.50;;
55647;SDS011;45266;48.756;9.246;2023-02-01T01:22:02;2.90;;;2.30;;
55647;SDS011;45266;48.756;9.246;2023-02-01T01:23:05;3.40;;;2.33;;
55647;SDS011;45266;48.756;9.246;2023-02-01T01:24:07;2.43;;;2.00;;
55647;SDS011;45266;48.756;9.246;2023-02-01T01:25:09;2.80;;;2.30;;
55647;SDS011;45266;48.756;9.246;2023-02-01T01:26:15;2.10;;;1.90;;
55647;SDS011;45266;48.756;9.246;2023-02-01T01:27:28;2.20;;;1.93;;
55647;SDS011;45266;48.756;9.246;2023-02-01T01:28:29;2.13;;;1.93;;
55647;SDS011;45266;48.756;9.246;2023-02-01T01:29:31;2.97;;;2.10;;
55647;SDS011;45266;48.756;9.246;2023-02-01T01:30:33;3.20;;;2.00;;
55647;SDS011;45266;48.756;9.246;2023-02-01T01:31:36;3.67;;;2.80;;
55647;SDS011;45266;48.756;9.246;2023-02-01T01:32:38;2.47;;;2.03;;
55647;SDS011;45266;48.756;9.246;2023-02-01T01:33:40;2.80;;;2.30;;
55647;SDS011;45266;48.756;9.246;2023-02-01T01:34:42;8.97;;;6.17;;
55647;SDS011;45266;48.756;9.246;2023-02-01T01:35:44;3.67;;;2.30;;
55647;SDS011;45266;48.756;9.246;2023-02-01T01:36:45;2.67;;;2.20;;
55647;SDS011;45266;48.756;9.246;2023-02-01T01:37:47;2.43;;;2.23;;
55647;SDS011;45266;48.756;9.246;2023-02-01T01:38:49;2.10;;;1.90;;
55647;SDS011;45266;48.756;9.246;2023-02-01T01:39:51;2.33;;;1.80;;
55647;SDS011;45266;48.756;9.246;2023-02-01T01:40:53;2.97;;;2.20;;
55647;SDS011;45266;48.756;9.246;2023-02-01T01:41:55;2.03;;;1.73;;
55647;SDS011;45266;48.756;9.246;2023-02-01T01:42:57;2.33;;;2.13;;
55647;SDS011;45266;48.756;9.246;2023-02-01T01:44:03;2.27;;;2.00;;
55647;SDS011;45266;48.756;9.246;2023-02-01T01:45:16;2.30;;;2.10;;
55647;SDS011;45266;48.756;9.246;2023-02-01T01:46:26;4.13;;;2.03;;
55647;SDS011;45266;48.756;9.246;2023-02-01T01:47:35;2.53;;;2.10;;
55647;SDS011;45266;48.756;9.246;2023-02-01T01:48:42;2.40;;;2.10;;
55647;SDS011;45266;48.756;9.246;2023-02-01T01:49:44;2.40;;;2.03;;
55647;SDS011;45266;48.756;9.246;2023-02-01T01:50:48;2.67;;;2.00;;
55647;SDS011;45266;48.756;9.246;2023-02-01T01:51:54;2.47;;;1.97;;
55647;SDS011;45266;48.756;9.246;2023-02-01T01:53:00;2.57;;;2.00;;
55647;SDS011;45266;48.756;9.246;2023-02-01T01:55:18;3.00;;;2.13;;
55647;SDS011;45266;48.756;9.246;2023-02-01T01:56:21;3.30;;;2.20;;
55647;SDS011;45266;48.756;9.246;2023-02-01T01:57:24;2.13;;;1.93;;
55647;SDS011;45266;48.756;9.246;2023-02-01T01:58:32;2.37;;;1.87;;
55647;SDS011;45266;48.756;9.246;2023-02-01T01:59:38;2.30;;;1.97;;
55647;SDS011;45266;48.756;9.246;2023-02-01T02:00:43;2.00;;;1.80;;
55647;SDS011;45266;48.756;9.246;2023-02-01T02:01:46;2.30;;;2.00;;
55647;SDS011;45266;48.756;9.246;2023-02-01T02:02:51;3.90;;;2.07;;
55647;SDS011;45266;48.756;9.246;2023-02-01T02:03:56;2.60;;;2.00;;
55647;SDS011;45266;48.756;9.246;2023-02-01T02:04:58;2.43;;;1.80;;
55647;SDS011;45266;48.756;9.246;2023-02-01T02:06:01;2.47;;;2.07;;
55647;SDS011;45266;48.756;9.246;2023-02-01T02:07:05;3.37;;;2.10;;
55647;SDS011;45266;48.756;9.246;2023-02-01T02:08:12;2.03;;;1.83;;
55647;SDS011;45266;48.756;9.246;2023-02-01T02:09:15;2.20;;;1.87;;
55647;SDS011;45266;48.756;9.246;2023-02-01T02:10:17;2.53;;;2.10;;
55647;SDS011;45266;48.756;9.246;2023-02-01T02:11:19;3.63;;;2.43;;
55647;SDS011;45266;48.756;9.246;2023-02-01T02:12:21;2.40;;;2.20;;
55647;SDS011;45266;48.756;9.246;2023-02-01T02:13:23;2.10;;;1.90;;
55647;SDS011;45266;48.756;9.246;2023-02-01T02:14:26;2.00;;;1.80;;
55647;SDS011;45266;48.756;9.246;2023-02-01T02:15:28;3.03;;;2.53;;
55647;SDS011;45266;48.756;9.246;2023-02-01T02:21:36;2.50;;;1.77;;
55647;SDS011;45266;48.756;9.246;2023-02-01T02:23:03;2.13;;;1.80;;
55647;SDS011;45266;48.756;9.246;2023-02-01T02:24:24;3.20;;;1.90;;
55647;SDS011;45266;48.756;9.246;2023-02-01T02:32:52;2.33;;;2.00;;
55647;SDS011;45266;48.756;9.246;2023-02-01T02:35:26;2.20;;;1.93;;
55647;SDS011;45266;48.756;9.246;2023-02-01T02:36:51;2.73;;;1.80;;
55647;SDS011;45266;48.756;9.246;2023-02-01T02:42:32;2.20;;;2.00;;
55647;SDS011;45266;48.756;9.246;2023-02-01T02:43:51;2.33;;;2.13;;
55647;SDS011;45266;48.756;9.246;2023-02-01T02:45:18;2.80;;;2.50;;
55647;SDS011;45266;48.756;9.246;2023-02-01T02:46:46;2.73;;;2.23;;
55647;SDS011;45266;48.756;9.246;2023-02-01T02:48:21;2.47;;;2.23;;
55647;SDS011;45266;48.756;9.246;2023-02-01T02:49:42;2.47;;;2.07;;
55647;SDS011;45266;48.756;9.246;2023-02-01T02:51:27;2.37;;;2.17;;
55647;SDS011;45266;48.756;9.246;2023-02-01T02:53:10;2.90;;;2.00;;
55647;SDS011;45266;48.756;9.246;2023-02-01T02:55:01;3.10;;;2.07;;
55647;SDS011;45266;48.756;9.246;2023-02-01T02:56:06;2.03;;;1.83;;
55647;SDS011;45266;48.756;9.246;2023-02-01T02:57:39;2.60;;;2.20;;
55647;SDS011;45266;48.756;9.246;2023-02-01T02:59:03;2.30;;;2.10;;
55647;SDS011;45266;48.756;9.246;2023-02-01T03:00:27;2.30;;;2.03;;
55647;SDS011;45266;48.756;9.246;2023-02-01T03:01:51;3.50;;;2.50;;
55647;SDS011;45266;48.756;9.246;2023-02-01T03:03:12;2.47;;;2.07;;
55647;SDS011;45266;48.756;9.246;2023-02-01T03:04:32;3.63;;;2.43;;
55647;SDS011;45266;48.756;9.246;2023-02-01T03:05:35;3.87;;;2.00;;
55647;SDS011;45266;48.756;9.246;2023-02-01T03:06:38;2.47;;;2.00;;
55647;SDS011;45266;48.756;9.246;2023-02-01T03:07:49;2.30;;;2.10;;
55647;SDS011;45266;48.756;9.246;2023-02-01T03:09:14;3.40;;;2.17;;
55647;SDS011;45266;48.756;9.246;2023-02-01T03:11:40;2.50;;;2.00;;
55647;SDS011;45266;48.756;9.246;2023-02-01T03:13:16;2.57;;;2.37;;
55647;SDS011;45266;48.756;9.246;2023-02-01T03:14:37;2.37;;;2.17;;
55647;SDS011;45266;48.756;9.246;2023-02-01T03:17:07;2.53;;;2.33;;
55647;SDS011;45266;48.756;9.246;2023-02-01T03:18:16;2.87;;;2.10;;
55647;SDS011;45266;48.756;9.246;2023-02-01T03:19:29;2.63;;;2.23;;
55647;SDS011;45266;48.756;9.246;2023-02-01T03:20:36;2.60;;;2.10;;
55647;SDS011;45266;48.756;9.246;2023-02-01T03:21:46;2.90;;;2.53;;
55647;SDS011;45266;48.756;9.246;2023-02-01T03:22:53;5.13;;;2.40;;
55647;SDS011;45266;48.756;9.246;2023-02-01T03:23:57;2.80;;;2.10;;
55647;SDS011;45266;48.756;9.246;2023-02-01T03:25:05;2.83;;;2.57;;
55647;SDS011;45266;48.756;9.246;2023-02-01T03:26:12;3.10;;;2.40;;
55647;SDS011;45266;48.756;9.246;2023-02-01T03:28:27;2.53;;;2.20;;
55647;SDS011;45266;48.756;9.246;2023-02-01T03:29:37;2.67;;;2.33;;
55647;SDS011;45266;48.756;9.246;2023-02-01T03:31:00;2.77;;;2.40;;
55647;SDS011;45266;48.756;9.246;2023-02-01T03:32:03;3.53;;;2.63;;
55647;SDS011;45266;48.756;9.246;2023-02-01T03:33:06;2.83;;;2.53;;
55647;SDS011;45266;48.756;9.246;2023-02-01T03:34:22;3.27;;;2.37;;
55647;SDS011;45266;48.756;9.246;2023-02-01T03:36:43;3.70;;;2.57;;
55647;SDS011;45266;48.756;9.246;2023-02-01T03:37:49;2.93;;;2.57;;
55647;SDS011;45266;48.756;9.246;2023-02-01T03:39:04;3.27;;;2.60;;
55647;SDS011;45266;48.756;9.246;2023-02-01T03:40:07;3.53;;;2.90;;
55647;SDS011;45266;48.756;9.246;2023-02-01T03:43:48;2.63;;;2.37;;
55647;SDS011;45266;48.756;9.246;2023-02-01T03:45:27;3.07;;;2.63;;
55647;SDS011;45266;48.756;9.246;2023-02-01T03:46:36;3.10;;;2.80;;
55647;SDS011;45266;48.756;9.246;2023-02-01T03:47:42;2.73;;;2.50;;
55647;SDS011;45266;48.756;9.246;2023-02-01T03:48:49;3.30;;;2.60;;
55647;SDS011;45266;48.756;9.246;2023-02-01T03:49:54;2.87;;;2.30;;
55647;SDS011;45266;48.756;9.246;2023-02-01T03:50:59;3.70;;;2.90;;
55647;SDS011;45266;48.756;9.246;2023-02-01T03:52:04;2.87;;;2.53;;
55647;SDS011;45266;48.756;9.246;2023-02-01T03:53:11;3.40;;;2.37;;
55647;SDS011;45266;48.756;9.246;2023-02-01T03:54:18;2.90;;;2.40;;
55647;SDS011;45266;48.756;9.246;2023-02-01T03:55:21;2.77;;;2.27;;
55647;SDS011;45266;48.756;9.246;2023-02-01T03:56:24;2.73;;;2.47;;
55647;SDS011;45266;48.756;9.246;2023-02-01T03:57:32;2.40;;;2.20;;
55647;SDS011;45266;48.756;9.246;2023-02-01T03:58:36;2.40;;;2.17;;
55647;SDS011;45266;48.756;9.246;2023-02-01T03:59:42;2.60;;;2.27;;
55647;SDS011;45266;48.756;9.246;2023-02-01T04:00:53;3.00;;;2.60;;
55647;SDS011;45266;48.756;9.246;2023-02-01T04:01:59;3.77;;;2.47;;
55647;SDS011;45266;48.756;9.246;2023-02-01T04:03:01;2.47;;;2.27;;
55647;SDS011;45266;48.756;9.246;2023-02-01T04:04:05;2.90;;;2.60;;
55647;SDS011;45266;48.756;9.246;2023-02-01T04:05:07;3.03;;;2.33;;
55647;SDS011;45266;48.756;9.246;2023-02-01T04:06:10;2.33;;;2.13;;
55647;SDS011;45266;48.756;9.246;2023-02-01T04:07:11;2.60;;;2.40;;
55647;SDS011;45266;48.756;9.246;2023-02-01T04:08:13;3.60;;;2.03;;
55647;SDS011;45266;48.756;9.246;2023-02-01T04:09:16;2.87;;;2.40;;
55647;SDS011;45266;48.756;9.246;2023-02-01T04:10:18;2.80;;;2.20;;
55647;SDS011;45266;48.756;9.246;2023-02-01T04:11:20;3.00;;;2.57;;
55647;SDS011;45266;48.756;9.246;2023-02-01T04:12:22;3.07;;;2.07;;
55647;SDS011;45266;48.756;9.246;2023-02-01T04:13:23;2.70;;;2.20;;
55647;SDS011;45266;48.756;9.246;2023-02-01T04:14:25;2.33;;;2.13;;
55647;SDS011;45266;48.756;9.246;2023-02-01T04:15:27;2.50;;;2.30;;
55647;SDS011;45266;48.756;9.246;2023-02-01T04:16:29;2.43;;;2.23;;
55647;SDS011;45266;48.756;9.246;2023-02-01T04:17:34;2.50;;;2.30;;
55647;SDS011;45266;48.756;9.246;2023-02-01T04:18:36;2.50;;;2.30;;
55647;SDS011;45266;48.756;9.246;2023-02-01T04:19:38;2.90;;;2.60;;
55647;SDS011;45266;48.756;9.246;2023-02-01T04:20:39;2.50;;;2.30;;
55647;SDS011;45266;48.756;9.246;2023-02-01T04:21:41;2.70;;;2.30;;
55647;SDS011;45266;48.756;9.246;2023-02-01T04:22:43;2.87;;;2.30;;
55647;SDS011;45266;48.756;9.246;2023-02-01T04:23:45;2.37;;;2.13;;
55647;SDS011;45266;48.756;9.246;2023-02-01T04:24:46;2.57;;;2.23;;
55647;SDS011;45266;48.756;9.246;2023-02-01T04:25:48;2.60;;;2.30;;
55647;SDS011;45266;48.756;9.246;2023-02-01T04:26:50;2.30;;;2.10;;
55647;SDS011;45266;48.756;9.246;2023-02-01T04:27:52;4.47;;;2.43;;
55647;SDS011;45266;48.756;9.246;2023-02-01T04:28:54;2.50;;;2.30;;
55647;SDS011;45266;48.756;9.246;2023-02-01T04:29:55;2.50;;;2.10;;
55647;SDS011;45266;48.756;9.246;2023-02-01T04:30:58;2.93;;;2.30;;
55647;SDS011;45266;48.756;9.246;2023-02-01T04:32:01;3.70;;;2.27;;
55647;SDS011;45266;48.756;9.246;2023-02-01T04:33:03;2.60;;;2.40;;
55647;SDS011;45266;48.756;9.246;2023-02-01T04:34:07;2.47;;;2.27;;
55647;SDS011;45266;48.756;9.246;2023-02-01T04:35:09;3.43;;;2.20;;
55647;SDS011;45266;48.756;9.246;2023-02-01T04:36:12;3.23;;;2.53;;
55647;SDS011;45266;48.756;9.246;2023-02-01T04:37:14;3.03;;;2.30;;
55647;SDS011;45266;48.756;9.246;2023-02-01T04:38:16;3.20;;;2.30;;
55647;SDS011;45266;48.756;9.246;2023-02-01T04:39:18;2.57;;;2.30;;
55647;SDS011;45266;48.756;9.246;2023-02-01T04:40:19;2.37;;;2.17;;
55647;SDS011;45266;48.756;9.246;2023-02-01T04:41:22;3.07;;;2.60;;
55647;SDS011;45266;48.756;9.246;2023-02-01T04:42:24;2.73;;;2.40;;
55647;SDS011;45266;48.756;9.246;2023-02-01T04:43:25;4.27;;;2.20;;
55647;SDS011;45266;48.756;9.246;2023-02-01T04:44:28;3.53;;;2.47;;
55647;SDS011;45266;48.756;9.246;2023-02-01T04:45:30;3.80;;;2.67;;
55647;SDS011;45266;48.756;9.246;2023-02-01T04:46:32;3.50;;;2.57;;
55647;SDS011;45266;48.756;9.246;2023-02-01T04:47:34;4.43;;;2.70;;
55647;SDS011;45266;48.756;9.246;2023-02-01T04:48:36;3.30;;;2.90;;
55647;SDS011;45266;48.756;9.246;2023-02-01T04:49:38;2.90;;;2.47;;
55647;SDS011;45266;48.756;9.246;2023-02-01T04:50:40;4.47;;;2.60;;
55647;SDS011;45266;48.756;9.246;2023-02-01T04:51:42;3.20;;;2.50;;
55647;SDS011;45266;48.756;9.246;2023-02-01T04:52:43;3.00;;;2.40;;
55647;SDS011;45266;48.756;9.246;2023-02-01T04:53:46;2.50;;;2.23;;
55647;SDS011;45266;48.756;9.246;2023-02-01T04:54:48;3.70;;;2.57;;
55647;SDS011;45266;48.756;9.246;2023-02-01T04:55:50;3.77;;;2.60;;
55647;SDS011;45266;48.756;9.246;2023-02-01T04:56:52;2.87;;;2.20;;
55647;SDS011;45266;48.756;9.246;2023-02-01T04:57:53;3.37;;;2.70;;
55647;SDS011;45266;48.756;9.246;2023-02-01T04:58:55;2.63;;;2.43;;
55647;SDS011;45266;48.756;9.246;2023-02-01T04:59:57;2.67;;;2.13;;
55647;SDS011;45266;48.756;9.246;2023-02-01T05:00:59;3.10;;;2.50;;
55647;SDS011;45266;48.756;9.246;2023-02-01T05:02:05;2.80;;;2.20;;
55647;SDS011;45266;48.756;9.246;2023-02-01T05:03:07;3.50;;;2.87;;
55647;SDS011;45266;48.756;9.246;2023-02-01T05:04:09;3.27;;;2.70;;
55647;SDS011;45266;48.756;9.246;2023-02-01T05:05:11;3.07;;;2.60;;
55647;SDS011;45266;48.756;9.246;2023-02-01T05:06:12;3.00;;;2.47;;
55647;SDS011;45266;48.756;9.246;2023-02-01T05:07:14;4.07;;;2.70;;
55647;SDS011;45266;48.756;9.246;2023-02-01T05:08:16;3.17;;;2.67;;
55647;SDS011;45266;48.756;9.246;2023-02-01T05:09:18;3.37;;;2.30;;
55647;SDS011;45266;48.756;9.246;2023-02-01T05:10:19;2.67;;;2.40;;
55647;SDS011;45266;48.756;9.246;2023-02-01T05:11:22;3.67;;;2.23;;
55647;SDS011;45266;48.756;9.246;2023-02-01T05:12:43;2.60;;;2.40;;
55647;SDS011;45266;48.756;9.246;2023-02-01T05:14:04;2.80;;;2.30;;
55647;SDS011;45266;48.756;9.246;2023-02-01T05:15:06;2.57;;;2.37;;
55647;SDS011;45266;48.756;9.246;2023-02-01T05:16:08;3.20;;;2.20;;
55647;SDS011;45266;48.756;9.246;2023-02-01T05:17:09;4.37;;;2.47;;
55647;SDS011;45266;48.756;9.246;2023-02-01T05:18:12;4.13;;;2.40;;
55647;SDS011;45266;48.756;9.246;2023-02-01T05:19:14;2.50;;;2.07;;
55647;SDS011;45266;48.756;9.246;2023-02-01T05:20:15;4.20;;;2.50;;
55647;SDS011;45266;48.756;9.246;2023-02-01T05:21:17;3.83;;;2.70;;
55647;SDS011;45266;48.756;9.246;2023-02-01T05:22:19;2.83;;;2.50;;
55647;SDS011;45266;48.756;9.246;2023-02-01T05:23:21;4.73;;;2.60;;
55647;SDS011;45266;48.756;9.246;2023-02-01T05:24:23;2.70;;;2.50;;
55647;SDS011;45266;48.756;9.246;2023-02-01T05:25:25;3.57;;;2.53;;
55647;SDS011;45266;48.756;9.246;2023-02-01T05:26:26;2.80;;;2.40;;
55647;SDS011;45266;48.756;9.246;2023-02-01T05:27:29;2.97;;;2.20;;
55647;SDS011;45266;48.756;9.246;2023-02-01T05:28:31;3.70;;;2.67;;
55647;SDS011;45266;48.756;9.246;2023-02-01T05:29:33;4.33;;;2.80;;
55647;SDS011;45266;48.756;9.246;2023-02-01T05:30:35;4.70;;;3.33;;
55647;SDS011;45266;48.756;9.246;2023-02-01T05:31:37;3.50;;;2.50;;
55647;SDS011;45266;48.756;9.246;2023-02-01T05:32:39;2.73;;;2.50;;
55647;SDS011;45266;48.756;9.246;2023-02-01T05:33:41;2.60;;;2.23;;
55647;SDS011;45266;48.756;9.246;2023-02-01T05:34:42;3.83;;;2.37;;
55647;SDS011;45266;48.756;9.246;2023-02-01T05:35:44;3.47;;;2.43;;
55647;SDS011;45266;48.756;9.246;2023-02-01T05:36:46;3.23;;;2.47;;
55647;SDS011;45266;48.756;9.246;2023-02-01T05:37:48;2.57;;;2.37;;
55647;SDS011;45266;48.756;9.246;2023-02-01T05:38:50;2.73;;;2.40;;
55647;SDS011;45266;48.756;9.246;2023-02-01T05:39:51;2.70;;;2.43;;
55647;SDS011;45266;48.756;9.246;2023-02-01T05:40:53;2.93;;;2.30;;
55647;SDS011;45266;48.756;9.246;2023-02-01T05:41:55;2.63;;;2.30;;
55647;SDS011;45266;48.756;9.246;2023-02-01T05:42:57;2.53;;;2.33;;
55647;SDS011;45266;48.756;9.246;2023-02-01T05:43:58;3.10;;;2.17;;
55647;SDS011;45266;48.756;9.246;2023-02-01T05:45:00;4.33;;;2.30;;
55647;SDS011;45266;48.756;9.246;2023-02-01T05:46:02;2.37;;;2.07;;
55647;SDS011;45266;48.756;9.246;2023-02-01T05:47:04;3.83;;;1.90;;
55647;SDS011;45266;48.756;9.246;2023-02-01T05:48:06;2.77;;;2.13;;
55647;SDS011;45266;48.756;9.246;2023-02-01T05:49:07;2.43;;;2.03;;
55647;SDS011;45266;48.756;9.246;2023-02-01T05:50:09;4.40;;;2.67;;
55647;SDS011;45266;48.756;9.246;2023-02-01T05:51:11;2.00;;;1.80;;
55647;SDS011;45266;48.756;9.246;2023-02-01T05:52:13;3.70;;;2.13;;
55647;SDS011;45266;48.756;9.246;2023-02-01T05:53:20;2.50;;;2.30;;
55647;SDS011;45266;48.756;9.246;2023-02-01T05:54:22;3.00;;;1.73;;
55647;SDS011;45266;48.756;9.246;2023-02-01T05:55:24;2.60;;;2.30;;
55647;SDS011;45266;48.756;9.246;2023-02-01T05:56:25;4.07;;;1.73;;
55647;SDS011;45266;48.756;9.246;2023-02-01T05:57:27;2.27;;;2.00;;
55647;SDS011;45266;48.756;9.246;2023-02-01T05:58:29;2.50;;;2.30;;
55647;SDS011;45266;48.756;9.246;2023-02-01T05:59:31;3.37;;;2.20;;
55647;SDS011;45266;48.756;9.246;2023-02-01T06:00:33;2.67;;;1.80;;
55647;SDS011;45266;48.756;9.246;2023-02-01T06:01:35;2.37;;;2.17;;
55647;SDS011;45266;48.756;9.246;2023-02-01T06:02:36;2.10;;;1.80;;
55647;SDS011;45266;48.756;9.246;2023-02-01T06:03:38;2.27;;;2.00;;
55647;SDS011;45266;48.756;9.246;2023-02-01T06:04:40;2.50;;;1.90;;
55647;SDS011;45266;48.756;9.246;2023-02-01T06:05:45;1.80;;;1.70;;
55647;SDS011;45266;48.756;9.246;2023-02-01T06:06:48;3.57;;;2.27;;
55647;SDS011;45266;48.756;9.246;2023-02-01T06:07:51;4.93;;;3.10;;
55647;SDS011;45266;48.756;9.246;2023-02-01T06:08:53;3.10;;;2.43;;
55647;SDS011;45266;48.756;9.246;2023-02-01T06:09:55;3.40;;;2.20;;
55647;SDS011;45266;48.756;9.246;2023-02-01T06:11:00;4.33;;;2.20;;
55647;SDS011;45266;48.756;9.246;2023-02-01T06:12:03;3.60;;;2.10;;
55647;SDS011;45266;48.756;9.246;2023-02-01T06:13:06;2.73;;;2.10;;
55647;SDS011;45266;48.756;9.246;2023-02-01T06:14:08;3.23;;;2.13;;
55647;SDS011;45266;48.756;9.246;2023-02-01T06:15:10;2.70;;;2.10;;
55647;SDS011;45266;48.756;9.246;2023-02-01T06:16:19;3.40;;;2.37;;
55647;SDS011;45266;48.756;9.246;2023-02-01T06:17:21;4.40;;;2.30;;
55647;SDS011;45266;48.756;9.246;2023-02-01T06:18:23;2.27;;;2.00;;
55647;SDS011;45266;48.756;9.246;2023-02-01T06:19:25;2.07;;;1.87;;
55647;SDS011;45266;48.756;9.246;2023-02-01T06:20:27;4.33;;;2.20;;
55647;SDS011;45266;48.756;9.246;2023-02-01T06:21:29;2.20;;;2.00;;
55647;SDS011;45266;48.756;9.246;2023-02-01T06:22:30;2.40;;;2.20;;
55647;SDS011;45266;48.756;9.246;2023-02-01T06:23:32;2.80;;;1.80;;
55647;SDS011;45266;48.756;9.246;2023-02-01T06:24:34;4.00;;;2.30;;
55647;SDS011;45266;48.756;9.246;2023-02-01T06:25:36;2.40;;;2.20;;
55647;SDS011;45266;48.756;9.246;2023-02-01T06:26:38;2.63;;;1.80;;
55647;SDS011;45266;48.756;9.246;2023-02-01T06:27:41;3.43;;;2.30;;
55647;SDS011;45266;48.756;9.246;2023-02-01T06:28:43;3.10;;;2.00;;
55647;SDS011;45266;48.756;9.246;2023-02-01T06:29:45;3.87;;;2.30;;
55647;SDS011;45266;48.756;9.246;2023-02-01T06:30:47;2.83;;;2.20;;
55647;SDS011;45266;48.756;9.246;2023-02-01T06:31:48;3.17;;;2.30;;
55647;SDS011;45266;48.756;9.246;2023-02-01T06:32:51;2.80;;;2.37;;
55647;SDS011;45266;48.756;9.246;2023-02-01T06:33:55;4.10;;;2.30;;
55647;SDS011;45266;48.756;9.246;2023-02-01T06:34:57;2.73;;;2.30;;
55647;SDS011;45266;48.756;9.246;2023-02-01T06:36:00;3.30;;;2.50;;
55647;SDS011;45266;48.756;9.246;2023-02-01T06:37:04;2.70;;;2.13;;
55647;SDS011;45266;48.756;9.246;2023-02-01T06:38:06;3.90;;;2.67;;
55647;SDS011;45266;48.756;9.246;2023-02-01T06:39:08;3.70;;;2.60;;
55647;SDS011;45266;48.756;9.246;2023-02-01T06:40:10;2.23;;;1.80;;
55647;SDS011;45266;48.756;9.246;2023-02-01T06:41:12;2.87;;;2.27;;
55647;SDS011;45266;48.756;9.246;2023-02-01T06:42:14;2.90;;;2.40;;
55647;SDS011;45266;48.756;9.246;2023-02-01T06:43:16;3.40;;;2.23;;
55647;SDS011;45266;48.756;9.246;2023-02-01T06:44:18;2.43;;;2.20;;
55647;SDS011;45266;48.756;9.246;2023-02-01T06:45:19;2.63;;;2.00;;
55647;SDS011;45266;48.756;9.246;2023-02-01T06:46:21;2.63;;;2.37;;
55647;SDS011;45266;48.756;9.246;2023-02-01T06:47:23;4.43;;;2.37;;
55647;SDS011;45266;48.756;9.246;2023-02-01T06:48:25;2.63;;;2.33;;
55647;SDS011;45266;48.756;9.246;2023-02-01T06:49:26;2.87;;;2.37;;
55647;SDS011;45266;48.756;9.246;2023-02-01T06:50:28;4.90;;;2.70;;
55647;SDS011;45266;48.756;9.246;2023-02-01T06:51:30;4.47;;;2.47;;
55647;SDS011;45266;48.756;9.246;2023-02-01T06:52:32;5.10;;;2.40;;
55647;SDS011;45266;48.756;9.246;2023-02-01T06:53:34;3.50;;;2.17;;
55647;SDS011;45266;48.756;9.246;2023-02-01T06:54:35;3.67;;;2.43;;
55647;SDS011;45266;48.756;9.246;2023-02-01T06:55:38;3.07;;;2.27;;
55647;SDS011;45266;48.756;9.246;2023-02-01T06:56:40;3.27;;;2.30;;
55647;SDS011;45266;48.756;9.246;2023-02-01T06:57:42;3.27;;;2.30;;